Time,TemperatureF,DewpointF,PressureIn,WindDirection,WindDirectionDegrees,WindSpeedMPH,WindSpeedGustMPH,Humidity,HourlyPrecipIn,Conditions,Clouds,dailyrainin,SolarRadiationWatts/m^2,SoftwareType,DateUTC
2013-12-27 00:10:00,50.6,34.0,30.20,South,175,0.0,1.0,54,0.00,,,0.00,0,weatherlink.com 1.10,2013-12-27 08:10:00,
2013-12-27 00:25:00,50.5,35.0,30.20,South,175,0.0,0.0,55,0.00,,,0.00,0,weatherlink.com 1.10,2013-12-27 08:25:00,
2013-12-27 00:41:00,49.3,34.0,30.21,South,175,0.0,1.0,57,0.00,,,0.00,0,weatherlink.com 1.10,2013-12-27 08:41:00,
2013-12-27 00:56:00,48.8,35.0,30.21,South,175,0.0,0.0,59,0.00,,,0.00,0,weatherlink.com 1.10,2013-12-27 08:56:00,
2013-12-27 01:11:00,48.3,34.0,30.21,South,175,0.0,1.0,59,0.00,,,0.00,0,weatherlink.com 1.10,2013-12-27 09:11:00,
2013-12-27 01:26:00,47.7,35.0,30.21,South,175,1.0,1.0,61,0.00,,,0.00,0,weatherlink.com 1.10,2013-12-27 09:26:00,
2013-12-27 01:41:00,48.0,34.0,30.21,South,175,0.0,1.0,59,0.00,,,0.00,0,weatherlink.com 1.10,2013-12-27 09:41:00,
2013-12-27 01:56:00,47.5,34.0,30.21,South,175,0.0,0.0,61,0.00,,,0.00,0,weatherlink.com 1.10,2013-12-27 09:56:00,
2013-12-27 02:11:00,48.6,36.0,30.21,South,175,0.0,1.0,61,0.00,,,0.00,0,weatherlink.com 1.10,2013-12-27 10:11:00,
2013-12-27 02:26:00,48.9,35.0,30.21,South,175,0.0,1.0,60,0.00,,,0.00,0,weatherlink.com 1.10,2013-12-27 10:26:00,
2013-12-27 02:41:00,48.3,35.0,30.21,South,175,0.0,0.0,61,0.00,,,0.00,0,weatherlink.com 1.10,2013-12-27 10:41:00,
2013-12-27 02:56:00,48.1,36.0,30.20,South,175,0.0,0.0,63,0.00,,,0.00,0,weatherlink.com 1.10,2013-12-27 10:56:00,
2013-12-27 03:11:00,47.4,37.0,30.21,South,175,0.0,0.0,67,0.00,,,0.00,0,weatherlink.com 1.10,2013-12-27 11:11:00,
2013-12-27 03:26:00,46.8,37.0,30.21,South,175,0.0,0.0,68,0.00,,,0.00,0,weatherlink.com 1.10,2013-12-27 11:26:00,
2013-12-27 03:41:00,46.6,36.0,30.21,South,175,0.0,0.0,66,0.00,,,0.00,0,weatherlink.com 1.10,2013-12-27 11:41:00,
2013-12-27 03:56:00,47.2,36.0,30.20,South,175,0.0,0.0,65,0.00,,,0.00,0,weatherlink.com 1.10,2013-12-27 11:56:00,
2013-12-27 04:11:00,47.6,36.0,30.20,South,175,0.0,1.0,64,0.00,,,0.00,0,weatherlink.com 1.10,2013-12-27 12:11:00,
2013-12-27 04:26:00,46.9,36.0,30.20,South,175,0.0,0.0,66,0.00,,,0.00,0,weatherlink.com 1.10,2013-12-27 12:26:00,
2013-12-27 04:41:00,46.2,36.0,30.20,South,175,0.0,0.0,67,0.00,,,0.00,0,weatherlink.com 1.10,2013-12-27 12:41:00,
2013-12-27 04:56:00,46.0,36.0,30.20,South,175,0.0,0.0,68,0.00,,,0.00,0,weatherlink.com 1.10,2013-12-27 12:56:00,
2013-12-27 05:11:00,45.8,36.0,30.20,South,175,0.0,0.0,68,0.00,,,0.00,0,weatherlink.com 1.10,2013-12-27 13:11:00,
2013-12-27 05:26:00,45.6,36.0,30.20,South,175,0.0,0.0,68,0.00,,,0.00,0,weatherlink.com 1.10,2013-12-27 13:26:00,
2013-12-27 05:41:00,45.4,35.0,30.20,South,175,0.0,1.0,68,0.00,,,0.00,0,weatherlink.com 1.10,2013-12-27 13:41:00,
2013-12-27 05:56:00,46.0,36.0,30.20,South,175,0.0,1.0,67,0.00,,,0.00,0,weatherlink.com 1.10,2013-12-27 13:56:00,
2013-12-27 06:11:00,46.0,36.0,30.20,South,175,0.0,1.0,67,0.00,,,0.00,0,weatherlink.com 1.10,2013-12-27 14:11:00,
2013-12-27 06:26:00,45.7,36.0,30.20,South,175,0.0,0.0,68,0.00,,,0.00,0,weatherlink.com 1.10,2013-12-27 14:26:00,
2013-12-27 06:41:00,45.7,36.0,30.20,South,175,0.0,0.0,68,0.00,,,0.00,0,weatherlink.com 1.10,2013-12-27 14:41:00,
2013-12-27 06:56:00,45.8,36.0,30.20,South,175,0.0,0.0,68,0.00,,,0.00,0,weatherlink.com 1.10,2013-12-27 14:56:00,
2013-12-27 07:11:00,45.6,36.0,30.21,South,175,0.0,0.0,70,0.00,,,0.00,0,weatherlink.com 1.10,2013-12-27 15:11:00,
2013-12-27 07:26:00,45.0,36.0,30.21,South,175,0.0,0.0,71,0.00,,,0.00,7,weatherlink.com 1.10,2013-12-27 15:26:00,
2013-12-27 07:41:00,44.6,36.0,30.21,South,175,0.0,0.0,72,0.00,,,0.00,28,weatherlink.com 1.10,2013-12-27 15:41:00,
2013-12-27 07:56:00,44.9,37.0,30.21,South,175,0.0,1.0,73,0.00,,,0.00,40,weatherlink.com 1.10,2013-12-27 15:56:00,
2013-12-27 08:11:00,45.7,37.0,30.21,South,175,0.0,0.0,73,0.00,,,0.00,72,weatherlink.com 1.10,2013-12-27 16:11:00,
2013-12-27 08:26:00,47.2,39.0,30.22,South,175,0.0,1.0,72,0.00,,,0.00,93,weatherlink.com 1.10,2013-12-27 16:26:00,
2013-12-27 08:41:00,49.2,39.0,30.22,South,175,0.0,1.0,69,0.00,,,0.00,148,weatherlink.com 1.10,2013-12-27 16:41:00,
2013-12-27 08:56:00,51.3,40.0,30.22,South,175,0.0,1.0,65,0.00,,,0.00,163,weatherlink.com 1.10,2013-12-27 16:56:00,
2013-12-27 09:11:00,52.7,39.0,30.22,South,175,0.0,2.0,61,0.00,,,0.00,246,weatherlink.com 1.10,2013-12-27 17:11:00,
2013-12-27 09:26:00,54.8,40.0,30.22,South,175,0.0,2.0,57,0.00,,,0.00,323,weatherlink.com 1.10,2013-12-27 17:26:00,
2013-12-27 09:42:00,55.3,41.0,30.22,South,175,0.0,2.0,58,0.00,,,0.00,295,weatherlink.com 1.10,2013-12-27 17:42:00,
2013-12-27 09:57:00,55.6,41.0,30.22,South,175,0.0,2.0,58,0.00,,,0.00,306,weatherlink.com 1.10,2013-12-27 17:57:00,
2013-12-27 10:12:00,56.8,41.0,30.23,South,175,0.0,2.0,57,0.00,,,0.00,274,weatherlink.com 1.10,2013-12-27 18:12:00,
2013-12-27 10:27:00,56.6,42.0,30.23,South,175,0.0,2.0,58,0.00,,,0.00,362,weatherlink.com 1.10,2013-12-27 18:27:00,
2013-12-27 10:42:00,57.8,42.0,30.22,South,175,2.0,3.0,56,0.00,,,0.00,527,weatherlink.com 1.10,2013-12-27 18:42:00,
2013-12-27 11:12:00,58.6,42.0,30.21,South,171,0.0,2.0,54,0.00,,,0.00,418,weatherlink.com 1.10,2013-12-27 19:12:00,
2013-12-27 11:27:00,58.8,44.0,30.20,SSE,165,0.0,3.0,58,0.00,,,0.00,241,weatherlink.com 1.10,2013-12-27 19:27:00,
2013-12-27 11:42:00,57.9,42.0,30.20,SSW,207,1.0,2.0,56,0.00,,,0.00,364,weatherlink.com 1.10,2013-12-27 19:42:00,
2013-12-27 11:57:00,57.4,43.0,30.19,South,174,1.0,3.0,58,0.00,,,0.00,287,weatherlink.com 1.10,2013-12-27 19:57:00,
2013-12-27 12:12:00,58.0,43.0,30.18,SSE,161,0.0,4.0,57,0.00,,,0.00,369,weatherlink.com 1.10,2013-12-27 20:12:00,
2013-12-27 12:27:00,59.4,43.0,30.18,SSE,162,0.0,3.0,55,0.00,,,0.00,411,weatherlink.com 1.10,2013-12-27 20:27:00,
2013-12-27 12:42:00,60.2,43.0,30.17,SSE,162,0.0,2.0,53,0.00,,,0.00,387,weatherlink.com 1.10,2013-12-27 20:42:00,
2013-12-27 12:57:00,61.5,44.0,30.18,SSE,162,0.0,2.0,53,0.00,,,0.00,316,weatherlink.com 1.10,2013-12-27 20:57:00,
2013-12-27 13:12:00,62.9,44.0,30.17,SSE,162,1.0,2.0,50,0.00,,,0.00,308,weatherlink.com 1.10,2013-12-27 21:12:00,
2013-12-27 13:27:00,62.1,44.0,30.16,SSE,162,0.0,1.0,51,0.00,,,0.00,225,weatherlink.com 1.10,2013-12-27 21:27:00,
2013-12-27 13:42:00,61.6,43.0,30.15,South,169,0.0,3.0,51,0.00,,,0.00,176,weatherlink.com 1.10,2013-12-27 21:42:00,
2013-12-27 13:57:00,61.3,43.0,30.14,South,170,0.0,2.0,52,0.00,,,0.00,165,weatherlink.com 1.10,2013-12-27 21:57:00,
2013-12-27 14:12:00,61.0,43.0,30.14,South,172,0.0,3.0,52,0.00,,,0.00,142,weatherlink.com 1.10,2013-12-27 22:12:00,
2013-12-27 14:27:00,60.8,40.0,30.14,South,178,1.0,2.0,47,0.00,,,0.00,114,weatherlink.com 1.10,2013-12-27 22:27:00,
2013-12-27 14:42:00,60.8,40.0,30.14,South,173,1.0,4.0,47,0.00,,,0.00,93,weatherlink.com 1.10,2013-12-27 22:42:00,
2013-12-27 14:57:00,60.7,43.0,30.15,South,173,1.0,2.0,52,0.00,,,0.00,86,weatherlink.com 1.10,2013-12-27 22:57:00,
2013-12-27 15:12:00,59.0,43.0,30.13,SE,140,0.0,5.0,56,0.00,,,0.00,72,weatherlink.com 1.10,2013-12-27 23:12:00,
2013-12-27 15:27:00,58.6,43.0,30.13,SE,143,0.0,3.0,56,0.00,,,0.00,69,weatherlink.com 1.10,2013-12-27 23:27:00,
2013-12-27 15:42:00,58.6,43.0,30.14,SE,143,0.0,1.0,57,0.00,,,0.00,49,weatherlink.com 1.10,2013-12-27 23:42:00,
2013-12-27 15:57:00,58.4,44.0,30.14,SE,143,0.0,0.0,59,0.00,,,0.00,47,weatherlink.com 1.10,2013-12-27 23:57:00,
2013-12-27 16:12:00,58.0,44.0,30.13,SE,143,0.0,1.0,59,0.00,,,0.00,25,weatherlink.com 1.10,2013-12-28 00:12:00,
2013-12-27 16:27:00,57.4,43.0,30.14,SE,143,0.0,1.0,60,0.00,,,0.00,16,weatherlink.com 1.10,2013-12-28 00:27:00,
2013-12-27 16:42:00,56.7,43.0,30.14,SE,139,0.0,1.0,61,0.00,,,0.00,7,weatherlink.com 1.10,2013-12-28 00:42:00,
2013-12-27 16:57:00,56.3,39.0,30.13,East,84,0.0,2.0,53,0.00,,,0.00,0,weatherlink.com 1.10,2013-12-28 00:57:00,
2013-12-27 17:12:00,56.4,38.0,30.13,SE,142,0.0,2.0,51,0.00,,,0.00,0,weatherlink.com 1.10,2013-12-28 01:12:00,
2013-12-27 17:27:00,56.1,38.0,30.14,North,5,1.0,3.0,51,0.00,,,0.00,0,weatherlink.com 1.10,2013-12-28 01:27:00,
2013-12-27 17:42:00,55.7,38.0,30.14,North,5,0.0,1.0,51,0.00,,,0.00,0,weatherlink.com 1.10,2013-12-28 01:42:00,
2013-12-27 17:57:00,55.1,37.0,30.14,ENE,65,0.0,2.0,51,0.00,,,0.00,0,weatherlink.com 1.10,2013-12-28 01:57:00,
2013-12-27 18:12:00,55.3,37.0,30.14,North,355,0.0,4.0,50,0.00,,,0.00,0,weatherlink.com 1.10,2013-12-28 02:12:00,
2013-12-27 18:27:00,54.7,37.0,30.15,North,360,0.0,2.0,51,0.00,,,0.00,0,weatherlink.com 1.10,2013-12-28 02:27:00,
2013-12-27 18:42:00,54.5,37.0,30.15,SSE,156,2.0,2.0,52,0.00,,,0.00,0,weatherlink.com 1.10,2013-12-28 02:42:00,
2013-12-27 18:57:00,54.9,36.0,30.15,ESE,110,0.0,2.0,50,0.00,,,0.00,0,weatherlink.com 1.10,2013-12-28 02:57:00,
2013-12-27 19:12:00,54.7,37.0,30.15,ENE,57,0.0,1.0,51,0.00,,,0.00,0,weatherlink.com 1.10,2013-12-28 03:12:00,
2013-12-27 19:27:00,53.6,36.0,30.15,ENE,57,0.0,0.0,52,0.00,,,0.00,0,weatherlink.com 1.10,2013-12-28 03:27:00,
2013-12-27 19:42:00,52.3,36.0,30.15,ENE,57,0.0,1.0,54,0.00,,,0.00,0,weatherlink.com 1.10,2013-12-28 03:42:00,
2013-12-27 19:57:00,51.8,35.0,30.15,ENE,57,0.0,1.0,54,0.00,,,0.00,0,weatherlink.com 1.10,2013-12-28 03:57:00,
2013-12-27 20:12:00,51.1,35.0,30.15,ENE,57,1.0,1.0,54,0.00,,,0.00,0,weatherlink.com 1.10,2013-12-28 04:12:00,
2013-12-27 20:27:00,50.5,35.0,30.14,ENE,57,0.0,0.0,55,0.00,,,0.00,0,weatherlink.com 1.10,2013-12-28 04:27:00,
2013-12-27 20:42:00,51.3,35.0,30.14,East,89,0.0,1.0,54,0.00,,,0.00,0,weatherlink.com 1.10,2013-12-28 04:42:00,
2013-12-27 20:57:00,51.2,37.0,30.15,East,89,0.0,1.0,58,0.00,,,0.00,0,weatherlink.com 1.10,2013-12-28 04:57:00,
2013-12-27 21:12:00,50.9,37.0,30.14,East,89,0.0,1.0,59,0.00,,,0.00,0,weatherlink.com 1.10,2013-12-28 05:12:00,
2013-12-27 21:27:00,50.6,37.0,30.14,East,89,0.0,1.0,60,0.00,,,0.00,0,weatherlink.com 1.10,2013-12-28 05:27:00,
2013-12-27 21:42:00,49.7,37.0,30.14,East,89,0.0,0.0,62,0.00,,,0.00,0,weatherlink.com 1.10,2013-12-28 05:42:00,
2013-12-27 21:57:00,49.8,39.0,30.14,East,89,0.0,1.0,66,0.00,,,0.00,0,weatherlink.com 1.10,2013-12-28 05:57:00,
2013-12-27 22:12:00,49.9,40.0,30.14,East,89,0.0,1.0,68,0.00,,,0.00,0,weatherlink.com 1.10,2013-12-28 06:12:00,
2013-12-27 22:27:00,49.8,40.0,30.14,East,89,0.0,1.0,69,0.00,,,0.00,0,weatherlink.com 1.10,2013-12-28 06:27:00,
2013-12-27 22:42:00,49.1,40.0,30.14,East,89,0.0,1.0,70,0.00,,,0.00,0,weatherlink.com 1.10,2013-12-28 06:42:00,
2013-12-27 22:57:00,48.4,39.0,30.13,East,89,0.0,2.0,71,0.00,,,0.00,0,weatherlink.com 1.10,2013-12-28 06:57:00,
2013-12-27 23:12:00,47.6,39.0,30.13,East,89,0.0,0.0,72,0.00,,,0.00,0,weatherlink.com 1.10,2013-12-28 07:12:00,
2013-12-27 23:27:00,47.8,39.0,30.13,East,84,0.0,2.0,71,0.00,,,0.00,0,weatherlink.com 1.10,2013-12-28 07:27:00,
2013-12-27 23:43:00,47.8,38.0,30.13,East,82,0.0,1.0,69,0.00,,,0.00,0,weatherlink.com 1.10,2013-12-28 07:43:00,
2013-12-27 23:58:00,47.8,38.0,30.12,East,82,0.0,1.0,68,0.00,,,0.00,0,weatherlink.com 1.10,2013-12-28 07:58:00,